createdAt,value
2022-08-17T00:06:53.779Z,23.50
2022-08-17T00:22:31.422Z,22.60
2022-08-17T00:37:23.886Z,21.20
2022-08-17T00:52:32.681Z,21.60
2022-08-17T01:07:37.963Z,22.10
2022-08-17T01:22:41.942Z,25.90
2022-08-17T01:37:45.514Z,27.60
2022-08-17T01:52:51.915Z,26.60
2022-08-17T02:07:59.521Z,35.10
2022-08-17T02:23:05.342Z,32.50
2022-08-17T02:38:11.376Z,30.40
2022-08-17T02:53:14.475Z,24.40
2022-08-17T03:08:19.864Z,21.20
2022-08-17T03:23:25.766Z,23.50
2022-08-17T03:38:29.221Z,23.70
2022-08-17T03:54:12.921Z,29.10
2022-08-17T04:09:15.961Z,23.20
2022-08-17T04:24:19.604Z,24.00
2022-08-17T04:39:25.501Z,27.10
2022-08-17T04:54:28.666Z,20.10
2022-08-17T05:09:33.310Z,25.00
2022-08-17T05:24:40.691Z,32.40
2022-08-17T05:39:47.062Z,25.00
2022-08-17T05:55:07.945Z,23.90
2022-08-17T06:10:18.556Z,28.00
2022-08-17T06:25:46.510Z,27.60
2022-08-17T06:40:59.459Z,29.10
2022-08-17T06:56:09.349Z,24.10
2022-08-17T07:11:21.234Z,24.20
2022-08-17T07:26:24.659Z,20.60
2022-08-17T07:41:57.536Z,21.90
2022-08-17T07:57:08.711Z,15.50
2022-08-17T08:12:28.955Z,15.00
2022-08-17T08:28:01.960Z,17.60
2022-08-17T08:43:37.234Z,21.40
2022-08-17T08:58:54.564Z,14.40
2022-08-17T09:14:21.886Z,14.50
2022-08-17T09:29:36.074Z,13.10
2022-08-17T09:45:27.816Z,21.50
2022-08-17T10:00:37.707Z,16.50
2022-08-17T10:15:44.431Z,11.10
2022-08-17T10:31:17.021Z,11.80
2022-08-17T10:46:44.428Z,13.00
2022-08-17T11:02:04.838Z,8.10
2022-08-17T11:17:46.566Z,8.00
